createdAt,value
2022-11-17T00:00:04.253Z,17.1
2022-11-17T00:05:40.858Z,17
2022-11-17T00:11:16.150Z,16.9
2022-11-17T00:16:51.313Z,16.9
2022-11-17T00:22:47.438Z,16.8
2022-11-17T00:28:24.883Z,16.8
2022-11-17T00:33:59.823Z,16.8
2022-11-17T00:40:24.048Z,16.8
2022-11-17T00:46:03.626Z,16.8
2022-11-17T00:51:38.773Z,16.8
2022-11-17T00:57:19.956Z,16.8
2022-11-17T01:02:56.041Z,16.8
2022-11-17T01:08:42.486Z,16.8
2022-11-17T01:14:18.343Z,16.8
2022-11-17T01:19:53.814Z,16.8
2022-11-17T01:25:29.739Z,16.8
2022-11-17T01:31:05.420Z,16.8
2022-11-17T01:36:40.515Z,16.8
2022-11-17T01:42:19.368Z,16.8
2022-11-17T01:48:24.790Z,16.8
2022-11-17T01:53:57.555Z,16.8
2022-11-17T01:59:36.682Z,16.8
2022-11-17T02:05:13.107Z,16.8
2022-11-17T02:10:51.876Z,16.7
2022-11-17T02:16:47.119Z,16.7
2022-11-17T02:22:30.524Z,16.7
2022-11-17T02:28:06.048Z,16.7
2022-11-17T02:33:41.357Z,16.7
2022-11-17T02:39:25.322Z,16.7
2022-11-17T02:45:00.535Z,16.7
2022-11-17T02:50:56.558Z,16.7
2022-11-17T02:56:37.988Z,16.7
2022-11-17T03:02:19.736Z,16.7
2022-11-17T03:08:03.652Z,16.7
2022-11-17T03:14:08.548Z,16.7
2022-11-17T03:20:38.174Z,16.7
2022-11-17T03:26:21.566Z,16.7
2022-11-17T03:31:57.244Z,16.7
2022-11-17T03:37:32.157Z,16.7
2022-11-17T03:43:06.969Z,16.7
2022-11-17T03:49:06.317Z,16.7
2022-11-17T03:54:39.333Z,16.7
2022-11-17T04:01:45.335Z,16.7
2022-11-17T04:07:22.241Z,16.6
2022-11-17T04:12:58.948Z,16.6
2022-11-17T04:19:18.997Z,16.6
2022-11-17T04:26:24.872Z,16.6
2022-11-17T04:32:08.748Z,16.6
2022-11-17T04:37:43.513Z,16.6
2022-11-17T04:43:27.899Z,16.6
2022-11-17T04:49:29.633Z,16.6
2022-11-17T04:55:02.587Z,16.6
2022-11-17T05:00:38.408Z,16.6
2022-11-17T05:06:13.527Z,16.6
2022-11-17T05:11:51.474Z,16.5
2022-11-17T05:17:28.530Z,16.5
2022-11-17T05:23:07.021Z,16.5
2022-11-17T05:29:07.860Z,16.5
2022-11-17T05:34:43.401Z,16.5
2022-11-17T05:40:32.713Z,16.4
2022-11-17T05:46:34.113Z,16.5
2022-11-17T05:52:08.496Z,16.4
2022-11-17T05:57:47.622Z,16.4
2022-11-17T06:04:03.263Z,16.4
2022-11-17T06:09:39.762Z,16.4
2022-11-17T06:15:22.920Z,16.4
2022-11-17T06:20:57.725Z,16.3
2022-11-17T06:26:36.395Z,16.3
2022-11-17T06:32:16.992Z,16.3
2022-11-17T06:37:52.804Z,16.3
2022-11-17T06:43:29.776Z,16.3
2022-11-17T06:49:47.461Z,16.3
2022-11-17T06:55:21.029Z,16.3
2022-11-17T07:01:03.443Z,16.2
2022-11-17T07:07:09.515Z,16.2
2022-11-17T07:13:05.698Z,16.2
2022-11-17T07:18:42.091Z,16.2
2022-11-17T07:24:37.113Z,16.2
2022-11-17T07:30:24.161Z,16.2
2022-11-17T07:36:02.274Z,16.2
2022-11-17T07:41:38.785Z,16.2
2022-11-17T07:47:48.498Z,16
2022-11-17T07:53:24.417Z,15.5
2022-11-17T07:58:59.663Z,15.4
2022-11-17T08:04:35.558Z,15.5
2022-11-17T08:10:14.480Z,15.6
2022-11-17T08:16:08.580Z,15.3
2022-11-17T08:22:09.194Z,15.1
2022-11-17T08:27:45.454Z,14.8
2022-11-17T08:33:23.855Z,15.3
2022-11-17T08:39:09.110Z,15.7
2022-11-17T08:45:17.175Z,15.7
2022-11-17T08:50:54.569Z,15.8
2022-11-17T08:56:32.831Z,16.1
2022-11-17T09:02:10.848Z,16.4
2022-11-17T09:07:49.577Z,16.5
2022-11-17T09:14:22.334Z,16.7
2022-11-17T09:19:58.941Z,16.6
2022-11-17T09:25:34.963Z,16.8
2022-11-17T09:31:10.635Z,16.9
2022-11-17T09:37:18.798Z,17.2
2022-11-17T09:43:20.107Z,17.1
2022-11-17T09:49:36.314Z,17.9
2022-11-17T09:55:10.804Z,17.9
2022-11-17T10:00:52.384Z,18
2022-11-17T10:06:31.811Z,17.9
2022-11-17T10:12:13.454Z,17.7
2022-11-17T10:17:54.866Z,17.9
2022-11-17T10:23:31.996Z,19.1
2022-11-17T10:29:21.838Z,19.3
2022-11-17T10:34:58.075Z,20.4
2022-11-17T10:40:45.511Z,20.5
2022-11-17T10:46:46.397Z,19.8
2022-11-17T10:52:20.658Z,19.9
2022-11-17T10:58:12.283Z,19.8
2022-11-17T11:03:50.799Z,19.1
2022-11-17T11:09:44.798Z,19.6
2022-11-17T11:15:39.576Z,19.4
2022-11-17T11:21:16.476Z,19.6
2022-11-17T11:26:55.624Z,19.8
2022-11-17T11:32:37.279Z,20
2022-11-17T11:38:13.900Z,20.2
2022-11-17T11:43:51.810Z,20.4
2022-11-17T11:49:49.497Z,20.4
2022-11-17T11:55:23.568Z,20
2022-11-17T12:00:59.050Z,20.5
2022-11-17T12:06:35.348Z,19.9
2022-11-17T12:12:17.513Z,20.6
2022-11-17T12:17:53.547Z,21.5
2022-11-17T12:23:35.231Z,20.3
2022-11-17T12:29:12.357Z,19.8
2022-11-17T12:35:33.617Z,19.8
2022-11-17T12:41:08.852Z,20.1
2022-11-17T12:47:06.757Z,20.4
2022-11-17T12:52:41.004Z,21.3
2022-11-17T12:58:16.342Z,21.7
2022-11-17T13:03:51.958Z,21.5
2022-11-17T13:09:28.330Z,22
2022-11-17T13:15:04.557Z,22.1
2022-11-17T13:20:41.890Z,21.3
2022-11-17T13:26:17.250Z,22.2
2022-11-17T13:31:53.285Z,23.6
2022-11-17T13:37:29.708Z,21.5
2022-11-17T13:43:21.874Z,23
2022-11-17T13:49:31.459Z,20.3
2022-11-17T13:55:05.832Z,19.8
2022-11-17T14:00:41.693Z,20
2022-11-17T14:06:19.389Z,19.5
2022-11-17T14:11:55.152Z,18.9
2022-11-17T14:17:30.826Z,18.5
2022-11-17T14:23:09.014Z,18
2022-11-17T14:28:45.199Z,17.6
2022-11-17T14:34:22.351Z,17.2
2022-11-17T14:39:58.117Z,17
2022-11-17T14:45:49.521Z,16.6
2022-11-17T14:51:25.166Z,16.6
2022-11-17T14:57:01.842Z,16.4
2022-11-17T15:02:40.370Z,16.5
2022-11-17T15:08:17.139Z,16.3
2022-11-17T15:13:53.813Z,16
2022-11-17T15:19:30.734Z,15.7
2022-11-17T15:25:08.622Z,15.9
2022-11-17T15:30:44.403Z,15.9
2022-11-17T15:36:21.008Z,15.8
2022-11-17T15:41:57.303Z,15.6
2022-11-17T15:47:54.988Z,15.5
2022-11-17T15:53:29.541Z,15.3
2022-11-17T15:59:05.780Z,15.3
2022-11-17T16:04:41.211Z,15.2
2022-11-17T16:10:16.811Z,15.1
2022-11-17T16:15:56.885Z,15
2022-11-17T16:21:31.938Z,14.9
2022-11-17T16:27:08.744Z,14.8
2022-11-17T16:32:49.900Z,14.7
2022-11-17T16:38:25.544Z,14.7
2022-11-17T16:44:02.208Z,14.6
2022-11-17T16:49:38.294Z,14.6
2022-11-17T16:55:13.951Z,14.5
2022-11-17T17:00:50.295Z,14.5
2022-11-17T17:06:26.313Z,14.5
2022-11-17T17:12:01.603Z,14.7
2022-11-17T17:17:37.047Z,16.3
2022-11-17T17:23:13.254Z,17.2
2022-11-17T17:28:49.915Z,17.4
2022-11-17T17:34:26.922Z,17.8
2022-11-17T17:40:02.319Z,17.6
2022-11-17T17:45:38.703Z,14.8
2022-11-17T17:51:14.121Z,14
2022-11-17T17:56:50.360Z,13.8
2022-11-17T18:02:29.239Z,13.8
2022-11-17T18:08:05.196Z,13.8
2022-11-17T18:14:01.703Z,13.5
2022-11-17T18:19:38.679Z,13.5
2022-11-17T18:25:18.013Z,13.4
2022-11-17T18:30:57.270Z,13.5
2022-11-17T18:36:34.658Z,13.3
2022-11-17T18:42:09.843Z,13.3
2022-11-17T18:48:08.104Z,13.5
2022-11-17T18:53:42.615Z,14.2
2022-11-17T18:59:18.686Z,14.5
2022-11-17T19:04:55.877Z,14.6
2022-11-17T19:10:33.117Z,14.7
2022-11-17T19:16:10.300Z,14.8
2022-11-17T19:21:46.280Z,14.8
2022-11-17T19:27:23.263Z,14.9
2022-11-17T19:33:01.483Z,14.9
2022-11-17T19:38:37.703Z,14.9
2022-11-17T19:44:13.845Z,15
2022-11-17T19:49:49.475Z,15
2022-11-17T19:55:25.782Z,15
2022-11-17T20:01:02.088Z,15
2022-11-17T20:06:39.866Z,15
2022-11-17T20:12:18.195Z,15
2022-11-17T20:18:00.757Z,15
2022-11-17T20:23:36.501Z,15
2022-11-17T20:29:16.274Z,15
2022-11-17T20:35:01.647Z,15
2022-11-17T20:40:38.976Z,15
2022-11-17T20:46:39.532Z,15
2022-11-17T20:52:14.715Z,15
2022-11-17T20:57:53.848Z,15
2022-11-17T21:03:30.090Z,14.9
2022-11-17T21:09:10.193Z,14.9
2022-11-17T21:14:48.543Z,14.9
2022-11-17T21:20:25.857Z,14.9
2022-11-17T21:26:04.115Z,14.9
2022-11-17T21:31:41.451Z,14.9
2022-11-17T21:37:17.122Z,14.8
2022-11-17T21:42:54.881Z,14.8
2022-11-17T21:48:52.536Z,14.7
2022-11-17T21:54:26.941Z,14.7
2022-11-17T22:00:03.115Z,14.7
2022-11-17T22:05:40.496Z,14.7
2022-11-17T22:11:16.308Z,14.7
2022-11-17T22:16:52.945Z,14.7
2022-11-17T22:22:29.084Z,14.7
2022-11-17T22:28:05.619Z,14.7
2022-11-17T22:33:42.251Z,14.7
2022-11-17T22:39:17.843Z,14.7
2022-11-17T22:44:58.323Z,14.6
2022-11-17T22:50:35.343Z,14.6
2022-11-17T22:56:11.270Z,14.5
2022-11-17T23:01:47.184Z,14.4
2022-11-17T23:07:23.459Z,14.5
2022-11-17T23:12:59.333Z,14.4
2022-11-17T23:18:34.971Z,14.4
2022-11-17T23:24:10.513Z,14.4
2022-11-17T23:29:46.734Z,14.4
2022-11-17T23:35:23.842Z,14.5
2022-11-17T23:40:59.887Z,14.4
2022-11-17T23:46:57.659Z,14.4
2022-11-17T23:52:30.973Z,14.4
2022-11-17T23:58:06.787Z,14.4
